Latest Weather Observations for Burketown Airport

IDQ60801

Issued at 10:02 pm EST Sunday 29 March 2015 (issued every 30 minutes, with the page automatically refreshed every 10 minutes)

About weather observations | Map of weather stations | Latest weather observations for QLD | Other Formats
Station Details ID: 029077 Name: BURKETOWN AIRPORT Lat: -17.75 Lon: 139.54 Height: 5.7 m
Data from the previous 72 hours. | See also: Recent months at Burketown Airport
Date/Time
EST
Temp
°C
App
Temp
°C
Dew
Point
Rel
Hum
%
Delta-T
°C
Wind Press
QNH
hPa
Press
MSL
hPa
Rain
since 9 am
mm
Dir
 
Spd
km/h
Gust
km/h
Spd
kts
Gust
kts
29/10:00pm 28.0 30.3 21.3 67 4.5 N 11 11 6 6 1013.4 - 0.0
29/09:30pm 28.1 30.6 21.1 65 4.7 N 9 9 5 5 1013.2 - 0.0
29/09:00pm 28.7 30.9 21.2 64 5.0 N 11 13 6 7 1013.0 1012.9 0.0
29/08:30pm 29.1 31.3 21.1 62 5.3 N 11 13 6 7 1012.7 - 0.0
29/08:00pm 30.2 32.3 21.0 58 6.1 N 11 15 6 8 1012.5 - 0.0
29/07:30pm 31.3 33.0 20.9 54 7.0 NNE 13 17 7 9 1012.2 - 0.0
29/07:00pm 32.1 33.7 20.7 51 7.6 NNE 13 17 7 9 1012.0 - 0.0
29/06:30pm 33.3 34.4 20.4 46 8.6 NNE 15 19 8 10 1011.8 - 0.0
29/06:00pm 34.5 35.4 20.1 43 9.6 NNE 15 22 8 12 1011.5 1011.4 0.0
29/05:30pm 35.1 35.4 19.5 40 10.3 NNE 17 22 9 12 1011.2 - 0.0
29/05:00pm 35.3 35.4 19.2 38 10.6 NNE 17 22 9 12 1011.2 - 0.0
29/04:30pm 35.6 35.9 19.5 38 10.7 NNE 17 20 9 11 1011.0 - 0.0
29/04:00pm 35.8 36.5 20.5 41 10.3 NNE 17 26 9 14 1011.0 - 0.0
29/03:30pm 36.1 37.4 20.8 41 10.3 NE 15 28 8 15 1011.1 - 0.0
29/03:00pm 35.5 36.5 20.2 40 10.2 NNE 15 24 8 13 1011.4 1011.3 0.0
29/02:30pm 36.2 37.1 20.8 40 10.4 ENE 17 26 9 14 1011.6 - 0.0
29/02:00pm 35.8 37.3 22.0 44 9.5 NE 17 20 9 11 1012.4 - 0.0
29/01:30pm 33.7 34.5 21.8 49 8.1 NE 20 26 11 14 1012.9 - 0.0
29/01:00pm 33.8 35.5 20.9 46 8.7 NE 13 22 7 12 1013.3 - 0.0
29/12:30pm 34.3 36.4 21.7 47 8.6 NE 13 20 7 11 1013.9 - 0.0
29/12:00pm 34.6 36.1 21.3 46 9.0 ENE 15 22 8 12 1014.3 1014.2 0.0
29/11:30am 34.2 37.2 21.9 48 8.4 ENE 9 17 5 9 1014.9 - 0.0
29/11:00am 33.9 35.3 21.0 47 8.7 NE 15 22 8 12 1015.3 - 0.0
29/10:30am 33.7 35.1 21.8 49 8.1 NE 17 20 9 11 1015.4 - 0.0
29/10:00am 32.7 35.3 21.9 53 7.3 E 11 17 6 9 1015.6 - 0.0
29/09:30am 31.9 34.9 22.6 58 6.4 ENE 11 17 6 9 1015.6 - 0.0
29/09:00am 30.8 33.7 23.2 64 5.2 NE 13 17 7 9 1015.5 1015.4 0.0
29/08:30am 29.8 32.5 23.5 69 4.3 E 15 20 8 11 1015.1 - 0.0
29/08:00am 28.6 31.7 23.5 74 3.5 ENE 13 17 7 9 1014.6 - 0.0
29/07:30am 26.3 29.1 23.0 82 2.2 NE 13 20 7 11 1014.2 - 0.0
29/07:00am 25.4 29.2 22.7 85 1.8 ESE 7 9 4 5 1013.4 - 0.0
29/06:30am 25.6 29.4 22.7 84 2.0 SSE 7 7 4 4 1013.1 - 0.0
29/06:00am 25.2 29.1 22.9 87 1.6 SW 7 7 4 4 1012.5 1012.4 0.0
29/05:30am 24.9 27.9 22.6 87 1.5 WSW 11 13 6 7 1012.2 - 0.0
29/05:00am 25.0 28.2 22.3 85 1.8 WSW 9 11 5 6 1011.8 - 0.0
29/04:30am 25.3 28.9 22.4 84 1.9 W 7 9 4 5 1011.6 - 0.0
29/04:00am 25.5 29.2 22.6 84 2.0 W 7 7 4 4 1011.6 - 0.0
29/03:30am 25.4 28.8 22.7 85 1.8 W 9 11 5 6 1011.6 - 0.0
29/03:00am 25.8 29.3 22.9 84 2.0 WNW 9 9 5 5 1011.7 1011.6 0.0
29/02:30am 25.6 28.5 22.5 83 2.1 WNW 11 11 6 6 1011.9 - 0.0
29/02:00am 26.1 29.6 22.8 82 2.2 NW 9 11 5 6 1012.2 - 0.0
29/01:30am 26.3 29.4 22.8 81 2.4 NNW 11 11 6 6 1012.3 - 0.0
29/01:00am 26.7 30.0 23.2 81 2.4 NNW 11 13 6 7 1012.4 - 0.0
29/12:30am 26.9 30.7 23.4 81 2.4 NW 9 13 5 7 1012.6 - 0.0
29/12:00am 27.1 30.6 23.6 81 2.4 NW 11 13 6 7 1012.7 1012.6 0.0
 
Date/Time
EST
Temp
°C
App
Temp
°C
Dew
Point
Rel
Hum
%
Delta-T
°C
Wind Press
QNH
hPa
Press
MSL
hPa
Rain
since 9 am
mm
Dir
 
Spd
km/h
Gust
km/h
Spd
kts
Gust
kts
28/11:30pm 27.2 31.2 23.7 81 2.4 WNW 9 13 5 7 1012.6 - 0.0
28/11:00pm 27.7 31.2 23.5 78 2.9 NW 11 13 6 7 1012.5 - 0.0
28/10:30pm 28.3 31.5 23.7 76 3.2 NNW 13 15 7 8 1012.6 - 0.0
28/10:00pm 28.5 31.5 23.4 74 3.5 NNW 13 15 7 8 1012.7 - 0.0
28/09:30pm 28.6 31.6 22.6 70 4.1 NNW 11 15 6 8 1012.6 - 0.0
28/09:00pm 29.0 31.9 22.5 68 4.4 NNW 11 13 6 7 1012.6 1012.5 0.0
28/08:30pm 29.5 32.7 23.0 68 4.4 N 11 17 6 9 1012.6 - 0.0
28/08:00pm 30.1 33.1 23.3 67 4.7 N 13 17 7 9 1012.3 - 0.0
28/07:30pm 30.3 33.1 23.0 65 5.0 N 13 19 7 10 1012.0 - 0.0
28/07:00pm 29.8 32.6 21.5 61 5.6 N 9 11 5 6 1011.5 - 0.0
28/06:30pm 30.1 33.3 21.2 59 6.0 SE 6 9 3 5 1011.5 - 0.0
28/06:00pm 30.3 31.5 21.4 59 6.0 SSE 17 26 9 14 1012.2 1012.1 0.0
28/05:30pm 31.9 34.4 21.7 54 6.9 NE 11 17 6 9 1012.2 - 0.0
28/05:00pm 32.3 33.4 21.2 52 7.5 N 17 22 9 12 1011.3 - 0.0
28/04:30pm 32.9 33.7 21.7 51 7.6 NNE 20 32 11 17 1011.1 - 0.0
28/04:00pm 33.2 33.4 22.0 51 7.6 N 24 35 13 19 1010.9 - 0.0
28/03:30pm 34.1 35.0 21.9 49 8.3 N 20 32 11 17 1011.0 - 0.0
28/03:00pm 35.2 36.1 21.5 45 9.3 N 19 28 10 15 1011.4 1011.3 0.0
28/02:30pm 34.4 35.6 21.4 46 8.8 NNE 17 22 9 12 1011.8 - 0.0
28/02:00pm 34.8 35.2 21.8 46 8.9 N 22 35 12 19 1011.8 - 0.0
28/01:30pm 34.6 34.8 22.0 48 8.6 NNE 24 33 13 18 1012.3 - 0.0
28/01:00pm 35.3 35.8 22.6 47 8.8 NNE 24 33 13 18 1012.5 - 0.0
28/12:30pm 34.7 34.5 22.1 48 8.6 N 26 37 14 20 1013.0 - 0.0
28/12:00pm 35.6 35.5 20.7 41 10.0 NNE 22 39 12 21 1013.4 1013.3 0.0
28/11:30am 35.6 34.1 17.8 35 11.5 N 22 30 12 16 1013.6 - 0.0
28/11:00am 35.0 33.5 16.8 34 11.6 NNE 20 30 11 16 1014.0 - 0.0
28/10:30am 34.4 33.7 15.3 31 11.9 NE 13 22 7 12 1014.1 - 0.0
28/10:00am 33.9 31.2 12.8 28 12.7 E 19 22 10 12 1014.3 - 0.0
28/09:30am 32.9 29.5 9.0 23 13.5 ESE 17 26 9 14 1014.3 - 0.0
28/09:00am 32.5 28.2 8.0 22 13.6 SE 20 24 11 13 1014.0 1013.9 0.0
28/08:30am 31.6 27.6 6.6 21 13.5 SSE 17 24 9 13 1013.7 - 0.0
28/08:00am 29.1 26.9 10.7 32 10.5 SSE 13 17 7 9 1013.5 - 0.0
28/07:30am 27.0 26.7 15.4 49 7.1 SSE 11 15 6 8 1013.2 - 0.0
28/07:00am 25.8 27.0 18.2 63 4.8 S 9 11 5 6 1013.0 - 0.0
28/06:30am 26.5 27.3 18.1 60 5.3 SSW 11 13 6 7 1012.6 - 0.0
28/06:00am 27.8 28.6 19.1 59 5.6 SSW 13 17 7 9 1012.2 1012.1 0.0
28/05:30am 27.2 27.9 21.5 71 3.8 SSW 20 24 11 13 1011.8 - 0.0
28/05:00am 26.3 29.8 22.2 78 2.8 SSW 7 9 4 5 1011.9 - 0.0
28/04:30am 26.6 29.5 22.4 78 2.8 SW 11 13 6 7 1011.8 - 0.0
28/04:00am 26.7 29.5 22.3 77 3.0 W 11 13 6 7 1011.8 - 0.0
28/03:30am 27.8 30.8 22.7 74 3.5 WSW 11 15 6 8 1011.9 - 0.0
28/03:00am 28.7 31.7 23.4 73 3.6 SSW 13 22 7 12 1012.4 1012.3 0.0
28/02:30am 28.4 32.3 24.2 78 2.9 WSW 11 15 6 8 1012.0 - 0.0
28/02:00am 28.4 33.0 24.2 78 2.9 NW 7 9 4 5 1012.1 - 0.0
28/01:30am 28.7 32.8 24.5 78 2.9 WNW 11 15 6 8 1012.1 - 0.0
28/01:00am 28.5 32.7 24.1 77 3.0 WNW 9 11 5 6 1012.3 - 0.0
28/12:30am 28.4 32.5 24.0 77 3.0 NW 9 11 5 6 1012.6 - 0.0
28/12:00am 28.3 32.1 23.4 75 3.4 WNW 9 11 5 6 1012.8 1012.7 0.0
 
Date/Time
EST
Temp
°C
App
Temp
°C
Dew
Point
Rel
Hum
%
Delta-T
°C
Wind Press
QNH
hPa
Press
MSL
hPa
Rain
since 9 am
mm
Dir
 
Spd
km/h
Gust
km/h
Spd
kts
Gust
kts
27/11:30pm 28.1 32.2 23.0 74 3.5 WNW 6 7 3 4 1013.0 - 0.0
27/11:00pm 28.4 32.1 23.3 74 3.5 NW 9 9 5 5 1013.1 - 0.0
27/10:30pm 28.3 32.4 23.2 74 3.5 N 7 9 4 5 1013.2 - 0.0
27/10:00pm 27.9 31.7 22.8 74 3.5 NNW 7 9 4 5 1013.2 - 0.0
27/09:30pm 27.4 31.0 22.3 73 3.4 WNW 7 9 4 5 1013.1 - 0.0
27/09:00pm 27.7 31.4 22.6 74 3.5 NW 7 9 4 5 1013.0 1012.9 0.0
27/08:30pm 28.7 31.4 22.9 71 4.0 N 13 17 7 9 1012.4 - 0.0
27/08:00pm 29.1 31.4 22.8 69 4.3 N 15 19 8 10 1012.2 - 0.0
27/07:30pm 29.6 31.6 22.3 65 4.9 N 15 22 8 12 1011.8 - 0.0
27/07:00pm 30.2 32.0 21.8 60 5.7 N 15 20 8 11 1011.5 - 0.0
27/06:30pm 31.2 32.1 20.8 54 6.9 N 17 22 9 12 1011.4 - 0.0
27/06:00pm 32.3 32.8 20.9 51 7.6 N 19 22 10 12 1011.1 1011.0 0.0
27/05:30pm 33.0 32.8 19.8 45 8.7 NNE 20 28 11 15 1011.0 - 0.0
27/05:00pm 33.9 33.4 19.2 42 9.7 N 20 26 11 14 1011.0 - 0.0
27/04:30pm 33.1 31.9 18.5 42 9.5 NNE 22 30 12 16 1010.9 - 0.0
27/04:00pm 34.0 32.1 17.7 38 10.5 NE 24 32 13 17 1011.0 - 0.0
27/03:30pm 34.9 32.1 15.3 31 12.3 NE 24 32 13 17 1011.0 - 0.0
27/03:00pm 37.6 33.2 7.5 16 17.0 ENE 20 26 11 14 1011.2 1011.1 0.0
27/02:30pm 37.9 33.1 4.7 13 17.9 ENE 19 30 10 16 1011.6 - 0.0
27/02:00pm 38.0 33.2 2.4 11 18.6 NE 17 26 9 14 1012.0 - 0.0
27/01:30pm 39.1 34.8 3.3 11 19.1 NE 15 24 8 13 1012.6 - 0.0
27/01:00pm 37.0 32.4 1.7 11 18.1 ESE 15 26 8 14 1013.2 - 0.0
27/12:30pm 36.6 31.2 1.4 11 17.9 SE 19 30 10 16 1013.8 - 0.0
27/12:00pm 36.2 30.8 2.3 12 17.5 E 20 37 11 20 1014.4 1014.3 0.0
27/11:30am 35.3 29.0 1.6 12 17.1 SE 24 30 13 16 1015.0 - 0.0
27/11:00am 34.6 27.5 1.1 12 16.8 ESE 28 41 15 22 1015.4 - 0.0
27/10:30am 34.8 27.3 1.2 12 16.9 SE 30 39 16 21 1015.4 - 0.0
27/10:00am 34.0 26.0 0.6 12 16.5 SE 32 46 17 25 1015.5 - 0.0
27/09:30am 32.4 24.4 0.5 13 15.6 SE 32 44 17 24 1015.7 - 0.0
27/09:00am 30.9 22.8 1.3 15 14.5 SSE 33 46 18 25 1015.6 1015.5 0.0
27/08:30am 29.7 23.0 1.2 16 13.9 SSE 26 35 14 19 1015.1 - 0.0
27/08:00am 28.1 22.8 3.0 20 12.5 SSE 20 26 11 14 1014.8 - 0.0
27/07:30am 25.9 21.3 3.8 24 11.0 S 17 20 9 11 1014.5 - 0.0
27/07:00am 24.9 20.8 4.1 26 10.3 S 15 19 8 10 1014.5 - 0.0
27/06:30am 24.8 20.7 4.5 27 10.1 S 15 19 8 10 1014.4 - 0.0
27/06:00am 25.2 21.2 4.9 27 10.2 S 15 17 8 9 1014.2 1014.1 0.0
27/05:30am 26.1 21.9 4.0 24 11.0 S 15 19 8 10 1014.1 - 0.0
27/05:00am 25.3 21.3 5.0 27 10.3 S 15 17 8 9 1013.9 - 0.0
27/04:30am 26.2 22.1 4.6 25 10.9 S 15 19 8 10 1014.0 - 0.0
27/04:00am 27.6 23.2 4.6 23 11.7 SSE 17 22 9 12 1014.0 - 0.0
27/03:30am 27.3 23.5 5.6 25 11.2 SSE 15 17 8 9 1014.0 - 0.0
27/03:00am 26.9 24.2 5.8 26 10.9 SSE 9 11 5 6 1014.0 1013.9 0.0
27/02:30am 27.8 24.3 5.4 24 11.6 SSE 13 15 7 8 1014.2 - 0.0
27/02:00am 28.9 25.6 4.4 21 12.5 SSE 11 15 6 8 1014.4 - 0.0
27/01:30am 30.6 26.7 3.6 18 13.8 SSE 13 17 7 9 1014.4 - 0.0
27/01:00am 31.5 26.9 3.5 17 14.3 S 17 20 9 11 1014.4 - 0.0
27/12:30am 29.9 26.2 6.5 23 12.5 S 15 19 8 10 1014.4 - 0.0
27/12:00am 30.3 28.0 7.5 24 12.4 S 9 13 5 7 1014.5 1014.4 0.0
 
Date/Time
EST
Temp
°C
App
Temp
°C
Dew
Point
Rel
Hum
%
Delta-T
°C
Wind Press
QNH
hPa
Press
MSL
hPa
Rain
since 9 am
mm
Dir
 
Spd
km/h
Gust
km/h
Spd
kts
Gust
kts
26/11:30pm 30.7 28.3 7.2 23 12.7 SSE 9 15 5 8 1014.7 - 0.0
26/11:00pm 31.9 28.8 5.4 19 14.0 SSE 11 15 6 8 1014.5 - 0.0
26/10:30pm 32.6 29.0 5.2 18 14.5 SE 13 15 7 8 1014.6 - 0.0

Other Formats:

Comma delimited format used in spreadsheet applications
http://www.bom.gov.au/fwo/IDQ60801/IDQ60801.94260.axf

JavaScript Object Notation format (JSON) in row-major order
http://www.bom.gov.au/fwo/IDQ60801/IDQ60801.94260.json